sensor_id;sensor_type;location;lat;lon;timestamp;temperature;humidity
3976;DHT22;2002;48.812;9.180;2023-03-01T00:01:24;15.90;1.00
3976;DHT22;2002;48.812;9.180;2023-03-01T00:03:49;15.90;1.00
3976;DHT22;2002;48.812;9.180;2023-03-01T00:06:15;15.80;1.00
3976;DHT22;2002;48.812;9.180;2023-03-01T00:08:41;15.80;1.00
3976;DHT22;2002;48.812;9.180;2023-03-01T00:11:19;15.80;1.00
3976;DHT22;2002;48.812;9.180;2023-03-01T00:13:47;15.70;1.00
3976;DHT22;2002;48.812;9.180;2023-03-01T00:16:15;15.70;1.00
3976;DHT22;2002;48.812;9.180;2023-03-01T00:18:41;15.60;1.00
3976;DHT22;2002;48.812;9.180;2023-03-01T00:21:07;15.60;1.00
3976;DHT22;2002;48.812;9.180;2023-03-01T00:23:34;15.60;1.00
3976;DHT22;2002;48.812;9.180;2023-03-01T00:26:00;15.60;1.00
3976;DHT22;2002;48.812;9.180;2023-03-01T00:28:26;15.60;1.00
3976;DHT22;2002;48.812;9.180;2023-03-01T00:30:51;15.60;1.00
3976;DHT22;2002;48.812;9.180;2023-03-01T00:33:18;15.50;1.00
3976;DHT22;2002;48.812;9.180;2023-03-01T00:35:43;15.50;1.00
3976;DHT22;2002;48.812;9.180;2023-03-01T00:38:09;15.50;1.00
3976;DHT22;2002;48.812;9.180;2023-03-01T00:40:36;15.50;1.00
3976;DHT22;2002;48.812;9.180;2023-03-01T00:43:03;15.50;1.00
3976;DHT22;2002;48.812;9.180;2023-03-01T00:45:29;15.60;1.00
3976;DHT22;2002;48.812;9.180;2023-03-01T00:47:56;15.80;1.00
3976;DHT22;2002;48.812;9.180;2023-03-01T00:50:22;16.00;1.00
3976;DHT22;2002;48.812;9.180;2023-03-01T00:52:52;16.10;1.00
3976;DHT22;2002;48.812;9.180;2023-03-01T00:55:18;16.20;1.00
3976;DHT22;2002;48.812;9.180;2023-03-01T00:57:43;16.30;1.00
3976;DHT22;2002;48.812;9.180;2023-03-01T01:00:09;16.30;1.00
3976;DHT22;2002;48.812;9.180;2023-03-01T01:02:37;16.30;1.00
3976;DHT22;2002;48.812;9.180;2023-03-01T01:05:04;16.20;1.00
3976;DHT22;2002;48.812;9.180;2023-03-01T01:07:29;16.20;1.00
3976;DHT22;2002;48.812;9.180;2023-03-01T01:09:55;16.10;1.00
3976;DHT22;2002;48.812;9.180;2023-03-01T01:12:21;16.10;1.00
3976;DHT22;2002;48.812;9.180;2023-03-01T01:14:47;16.00;1.00
3976;DHT22;2002;48.812;9.180;2023-03-01T01:17:13;16.00;1.00
3976;DHT22;2002;48.812;9.180;2023-03-01T01:19:38;15.90;1.00
3976;DHT22;2002;48.812;9.180;2023-03-01T01:22:04;15.90;1.00
3976;DHT22;2002;48.812;9.180;2023-03-01T01:24:29;15.90;1.00
3976;DHT22;2002;48.812;9.180;2023-03-01T01:26:55;15.80;1.00
3976;DHT22;2002;48.812;9.180;2023-03-01T01:29:21;15.80;1.00
3976;DHT22;2002;48.812;9.180;2023-03-01T01:31:46;15.80;1.00
3976;DHT22;2002;48.812;9.180;2023-03-01T01:34:18;15.80;1.00
3976;DHT22;2002;48.812;9.180;2023-03-01T01:36:47;15.70;1.00
3976;DHT22;2002;48.812;9.180;2023-03-01T01:39:13;15.70;1.00
3976;DHT22;2002;48.812;9.180;2023-03-01T01:41:40;15.70;1.00
3976;DHT22;2002;48.812;9.180;2023-03-01T01:44:19;15.60;1.00
3976;DHT22;2002;48.812;9.180;2023-03-01T01:46:57;15.60;1.00
3976;DHT22;2002;48.812;9.180;2023-03-01T01:52:29;15.50;1.00
3976;DHT22;2002;48.812;9.180;2023-03-01T01:55:10;15.50;1.00
3976;DHT22;2002;48.812;9.180;2023-03-01T01:57:47;15.60;1.00
3976;DHT22;2002;48.812;9.180;2023-03-01T02:00:20;15.60;1.00
3976;DHT22;2002;48.812;9.180;2023-03-01T02:02:48;15.90;1.00
3976;DHT22;2002;48.812;9.180;2023-03-01T02:08:20;16.10;1.00
3976;DHT22;2002;48.812;9.180;2023-03-01T02:10:48;16.20;1.00
3976;DHT22;2002;48.812;9.180;2023-03-01T02:13:14;16.30;1.00
3976;DHT22;2002;48.812;9.180;2023-03-01T02:15:41;16.20;1.00
3976;DHT22;2002;48.812;9.180;2023-03-01T02:18:10;16.30;1.00
3976;DHT22;2002;48.812;9.180;2023-03-01T02:23:36;16.10;1.00
3976;DHT22;2002;48.812;9.180;2023-03-01T02:26:25;16.10;1.00
3976;DHT22;2002;48.812;9.180;2023-03-01T02:28:55;16.00;1.00
3976;DHT22;2002;48.812;9.180;2023-03-01T02:31:21;15.90;1.00
3976;DHT22;2002;48.812;9.180;2023-03-01T02:34:07;15.90;1.00
3976;DHT22;2002;48.812;9.180;2023-03-01T02:36:48;15.80;1.00
3976;DHT22;2002;48.812;9.180;2023-03-01T02:39:21;15.80;1.00
3976;DHT22;2002;48.812;9.180;2023-03-01T02:41:52;15.80;1.00
3976;DHT22;2002;48.812;9.180;2023-03-01T02:44:18;15.80;1.00
3976;DHT22;2002;48.812;9.180;2023-03-01T02:46:47;15.70;1.00
3976;DHT22;2002;48.812;9.180;2023-03-01T02:49:25;15.70;1.00
3976;DHT22;2002;48.812;9.180;2023-03-01T02:55:15;15.60;1.00
3976;DHT22;2002;48.812;9.180;2023-03-01T02:57:44;15.60;1.00
3976;DHT22;2002;48.812;9.180;2023-03-01T03:00:17;15.60;1.00
3976;DHT22;2002;48.812;9.180;2023-03-01T03:02:48;15.60;1.00
3976;DHT22;2002;48.812;9.180;2023-03-01T03:05:20;15.50;1.00
3976;DHT22;2002;48.812;9.180;2023-03-01T03:07:47;15.50;1.00
3976;DHT22;2002;48.812;9.180;2023-03-01T03:10:35;15.50;1.00
3976;DHT22;2002;48.812;9.180;2023-03-01T03:13:03;15.50;1.00
3976;DHT22;2002;48.812;9.180;2023-03-01T03:15:29;15.40;1.00
3976;DHT22;2002;48.812;9.180;2023-03-01T03:17:57;15.40;1.00
3976;DHT22;2002;48.812;9.180;2023-03-01T03:20:25;15.60;1.00
3976;DHT22;2002;48.812;9.180;2023-03-01T03:22:52;15.80;1.00
3976;DHT22;2002;48.812;9.180;2023-03-01T03:25:19;16.10;1.00
3976;DHT22;2002;48.812;9.180;2023-03-01T03:27:46;16.30;1.00
3976;DHT22;2002;48.812;9.180;2023-03-01T03:30:17;16.50;1.00
3976;DHT22;2002;48.812;9.180;2023-03-01T03:32:45;16.50;1.00
3976;DHT22;2002;48.812;9.180;2023-03-01T03:36:00;16.50;1.00
3976;DHT22;2002;48.812;9.180;2023-03-01T03:38:08;16.50;1.00
3976;DHT22;2002;48.812;9.180;2023-03-01T03:40:48;16.50;1.00
3976;DHT22;2002;48.812;9.180;2023-03-01T03:43:22;16.40;1.00
3976;DHT22;2002;48.812;9.180;2023-03-01T03:45:49;16.30;1.00
3976;DHT22;2002;48.812;9.180;2023-03-01T03:48:15;16.30;1.00
3976;DHT22;2002;48.812;9.180;2023-03-01T03:50:41;16.20;1.00
3976;DHT22;2002;48.812;9.180;2023-03-01T03:53:12;16.10;1.00
3976;DHT22;2002;48.812;9.180;2023-03-01T03:55:38;16.10;1.00
3976;DHT22;2002;48.812;9.180;2023-03-01T03:58:08;16.10;1.00
3976;DHT22;2002;48.812;9.180;2023-03-01T04:00:39;16.00;1.00
3976;DHT22;2002;48.812;9.180;2023-03-01T04:03:05;16.00;1.00
3976;DHT22;2002;48.812;9.180;2023-03-01T04:05:31;15.90;1.00
3976;DHT22;2002;48.812;9.180;2023-03-01T04:07:57;15.90;1.00
3976;DHT22;2002;48.812;9.180;2023-03-01T04:10:30;15.90;1.00
3976;DHT22;2002;48.812;9.180;2023-03-01T04:12:56;15.80;1.00
3976;DHT22;2002;48.812;9.180;2023-03-01T04:15:23;15.80;1.00
3976;DHT22;2002;48.812;9.180;2023-03-01T04:17:51;15.80;1.00
3976;DHT22;2002;48.812;9.180;2023-03-01T04:20:23;15.70;1.00
3976;DHT22;2002;48.812;9.180;2023-03-01T04:22:56;15.70;1.00
3976;DHT22;2002;48.812;9.180;2023-03-01T04:25:23;15.60;1.00
3976;DHT22;2002;48.812;9.180;2023-03-01T04:27:49;15.60;1.00
3976;DHT22;2002;48.812;9.180;2023-03-01T04:30:14;15.60;1.00
3976;DHT22;2002;48.812;9.180;2023-03-01T04:32:40;15.60;1.00
3976;DHT22;2002;48.812;9.180;2023-03-01T04:35:06;15.60;1.00
3976;DHT22;2002;48.812;9.180;2023-03-01T04:37:32;15.50;1.00
3976;DHT22;2002;48.812;9.180;2023-03-01T04:39:58;15.50;1.00
3976;DHT22;2002;48.812;9.180;2023-03-01T04:42:23;15.50;1.00
3976;DHT22;2002;48.812;9.180;2023-03-01T04:44:49;15.50;1.00
3976;DHT22;2002;48.812;9.180;2023-03-01T04:47:16;15.50;1.00
3976;DHT22;2002;48.812;9.180;2023-03-01T04:49:42;15.50;1.00
3976;DHT22;2002;48.812;9.180;2023-03-01T04:52:08;15.60;1.00
3976;DHT22;2002;48.812;9.180;2023-03-01T04:54:35;15.90;1.00
3976;DHT22;2002;48.812;9.180;2023-03-01T04:57:02;16.20;1.00
3976;DHT22;2002;48.812;9.180;2023-03-01T04:59:28;16.50;1.00
3976;DHT22;2002;48.812;9.180;2023-03-01T05:01:55;16.60;1.00
3976;DHT22;2002;48.812;9.180;2023-03-01T05:04:24;16.70;1.00
3976;DHT22;2002;48.812;9.180;2023-03-01T05:06:50;16.70;1.00
3976;DHT22;2002;48.812;9.180;2023-03-01T05:09:16;16.60;1.00
3976;DHT22;2002;48.812;9.180;2023-03-01T05:11:42;16.50;1.00
3976;DHT22;2002;48.812;9.180;2023-03-01T05:14:09;16.50;1.00
3976;DHT22;2002;48.812;9.180;2023-03-01T05:16:35;16.50;1.00
3976;DHT22;2002;48.812;9.180;2023-03-01T05:19:03;16.40;1.00
3976;DHT22;2002;48.812;9.180;2023-03-01T05:21:37;16.30;1.00
3976;DHT22;2002;48.812;9.180;2023-03-01T05:24:23;16.30;1.00
3976;DHT22;2002;48.812;9.180;2023-03-01T05:26:49;16.20;1.00
3976;DHT22;2002;48.812;9.180;2023-03-01T05:29:17;16.20;1.00
3976;DHT22;2002;48.812;9.180;2023-03-01T05:31:43;16.10;1.00
3976;DHT22;2002;48.812;9.180;2023-03-01T05:34:09;16.10;1.00
3976;DHT22;2002;48.812;9.180;2023-03-01T05:36:34;16.10;1.00
3976;DHT22;2002;48.812;9.180;2023-03-01T05:39:00;16.00;1.00
3976;DHT22;2002;48.812;9.180;2023-03-01T05:41:25;16.00;1.00
3976;DHT22;2002;48.812;9.180;2023-03-01T05:43:51;15.90;1.00
3976;DHT22;2002;48.812;9.180;2023-03-01T05:46:17;15.90;1.00
3976;DHT22;2002;48.812;9.180;2023-03-01T05:48:42;15.90;1.00
3976;DHT22;2002;48.812;9.180;2023-03-01T05:51:08;15.80;1.00
3976;DHT22;2002;48.812;9.180;2023-03-01T05:53:34;15.80;1.00
3976;DHT22;2002;48.812;9.180;2023-03-01T05:56:03;15.80;1.00
3976;DHT22;2002;48.812;9.180;2023-03-01T05:58:29;15.80;1.00
3976;DHT22;2002;48.812;9.180;2023-03-01T06:00:54;15.80;1.00
3976;DHT22;2002;48.812;9.180;2023-03-01T06:03:20;15.80;1.00
3976;DHT22;2002;48.812;9.180;2023-03-01T06:05:45;15.80;1.00
3976;DHT22;2002;48.812;9.180;2023-03-01T06:08:12;15.70;1.00
3976;DHT22;2002;48.812;9.180;2023-03-01T06:10:37;15.70;1.00
3976;DHT22;2002;48.812;9.180;2023-03-01T06:13:03;15.70;1.00
3976;DHT22;2002;48.812;9.180;2023-03-01T06:15:28;15.70;1.00
3976;DHT22;2002;48.812;9.180;2023-03-01T06:17:55;15.70;1.00
3976;DHT22;2002;48.812;9.180;2023-03-01T06:20:25;15.70;1.00
3976;DHT22;2002;48.812;9.180;2023-03-01T06:22:51;15.70;1.00
3976;DHT22;2002;48.812;9.180;2023-03-01T06:25:20;15.70;1.00
3976;DHT22;2002;48.812;9.180;2023-03-01T06:27:46;15.80;1.00
3976;DHT22;2002;48.812;9.180;2023-03-01T06:30:15;15.90;1.00
3976;DHT22;2002;48.812;9.180;2023-03-01T06:32:41;16.20;1.00
3976;DHT22;2002;48.812;9.180;2023-03-01T06:35:11;16.40;1.00
3976;DHT22;2002;48.812;9.180;2023-03-01T06:37:37;16.50;1.00
3976;DHT22;2002;48.812;9.180;2023-03-01T06:40:04;16.50;1.00
3976;DHT22;2002;48.812;9.180;2023-03-01T06:42:34;16.40;1.00
3976;DHT22;2002;48.812;9.180;2023-03-01T06:45:00;16.40;1.00
3976;DHT22;2002;48.812;9.180;2023-03-01T06:47:25;16.30;1.00
3976;DHT22;2002;48.812;9.180;2023-03-01T06:49:51;16.20;1.00
3976;DHT22;2002;48.812;9.180;2023-03-01T06:52:16;16.20;1.00
3976;DHT22;2002;48.812;9.180;2023-03-01T06:54:42;16.10;1.00
3976;DHT22;2002;48.812;9.180;2023-03-01T06:57:08;16.10;1.00
3976;DHT22;2002;48.812;9.180;2023-03-01T06:59:33;16.00;1.00
3976;DHT22;2002;48.812;9.180;2023-03-01T07:01:59;16.00;1.00
3976;DHT22;2002;48.812;9.180;2023-03-01T07:04:24;16.00;1.00
3976;DHT22;2002;48.812;9.180;2023-03-01T07:06:50;15.90;1.00
3976;DHT22;2002;48.812;9.180;2023-03-01T07:09:23;15.90;1.00
3976;DHT22;2002;48.812;9.180;2023-03-01T07:11:49;15.90;1.00
3976;DHT22;2002;48.812;9.180;2023-03-01T07:14:15;15.80;1.00
3976;DHT22;2002;48.812;9.180;2023-03-01T07:16:41;15.80;1.00
3976;DHT22;2002;48.812;9.180;2023-03-01T07:19:06;15.90;1.00
3976;DHT22;2002;48.812;9.180;2023-03-01T07:21:32;15.80;1.00
3976;DHT22;2002;48.812;9.180;2023-03-01T07:23:58;15.80;1.00
3976;DHT22;2002;48.812;9.180;2023-03-01T07:26:23;15.80;1.00
3976;DHT22;2002;48.812;9.180;2023-03-01T07:28:49;15.80;1.00
3976;DHT22;2002;48.812;9.180;2023-03-01T07:31:14;15.70;1.00
3976;DHT22;2002;48.812;9.180;2023-03-01T07:33:40;15.70;1.00
3976;DHT22;2002;48.812;9.180;2023-03-01T07:36:06;15.70;1.00
3976;DHT22;2002;48.812;9.180;2023-03-01T07:38:32;15.70;1.00
3976;DHT22;2002;48.812;9.180;2023-03-01T07:40:59;15.70;1.00
3976;DHT22;2002;48.812;9.180;2023-03-01T07:43:26;15.70;1.00
3976;DHT22;2002;48.812;9.180;2023-03-01T07:45:52;15.70;1.00
3976;DHT22;2002;48.812;9.180;2023-03-01T07:48:17;15.70;1.00
3976;DHT22;2002;48.812;9.180;2023-03-01T07:50:43;15.70;1.00
3976;DHT22;2002;48.812;9.180;2023-03-01T07:53:09;15.70;1.00
3976;DHT22;2002;48.812;9.180;2023-03-01T07:55:35;15.70;1.00
3976;DHT22;2002;48.812;9.180;2023-03-01T07:58:01;15.70;1.00
3976;DHT22;2002;48.812;9.180;2023-03-01T08:00:26;15.80;1.00
3976;DHT22;2002;48.812;9.180;2023-03-01T08:02:52;15.70;1.00
3976;DHT22;2002;48.812;9.180;2023-03-01T08:05:18;15.60;1.00
3976;DHT22;2002;48.812;9.180;2023-03-01T08:07:43;15.70;1.00
3976;DHT22;2002;48.812;9.180;2023-03-01T08:10:09;15.70;1.00
3976;DHT22;2002;48.812;9.180;2023-03-01T08:12:35;15.90;1.00
3976;DHT22;2002;48.812;9.180;2023-03-01T08:15:01;16.30;1.00
3976;DHT22;2002;48.812;9.180;2023-03-01T08:17:26;16.60;1.00
3976;DHT22;2002;48.812;9.180;2023-03-01T08:19:52;16.70;1.00
3976;DHT22;2002;48.812;9.180;2023-03-01T08:22:17;16.70;1.00
3976;DHT22;2002;48.812;9.180;2023-03-01T08:24:43;16.70;1.00
3976;DHT22;2002;48.812;9.180;2023-03-01T08:27:08;16.60;1.00
3976;DHT22;2002;48.812;9.180;2023-03-01T08:29:34;16.50;1.00
3976;DHT22;2002;48.812;9.180;2023-03-01T08:32:00;16.40;1.00
3976;DHT22;2002;48.812;9.180;2023-03-01T08:34:26;16.30;1.00
3976;DHT22;2002;48.812;9.180;2023-03-01T08:36:51;16.30;1.00
3976;DHT22;2002;48.812;9.180;2023-03-01T08:39:19;16.20;1.00
3976;DHT22;2002;48.812;9.180;2023-03-01T08:41:46;16.20;1.00
3976;DHT22;2002;48.812;9.180;2023-03-01T08:44:13;16.10;1.00
3976;DHT22;2002;48.812;9.180;2023-03-01T08:46:42;16.10;1.00
3976;DHT22;2002;48.812;9.180;2023-03-01T08:49:14;16.00;1.00
3976;DHT22;2002;48.812;9.180;2023-03-01T08:51:40;16.00;1.00
3976;DHT22;2002;48.812;9.180;2023-03-01T08:54:09;15.90;1.00
3976;DHT22;2002;48.812;9.180;2023-03-01T08:56:36;15.90;1.00
3976;DHT22;2002;48.812;9.180;2023-03-01T08:59:02;15.90;1.00
3976;DHT22;2002;48.812;9.180;2023-03-01T09:01:28;15.90;1.00
3976;DHT22;2002;48.812;9.180;2023-03-01T09:03:54;15.80;1.00
3976;DHT22;2002;48.812;9.180;2023-03-01T09:06:19;15.80;1.00
3976;DHT22;2002;48.812;9.180;2023-03-01T09:08:49;15.80;1.00
3976;DHT22;2002;48.812;9.180;2023-03-01T09:11:18;15.80;1.00
3976;DHT22;2002;48.812;9.180;2023-03-01T09:13:44;15.80;1.00
3976;DHT22;2002;48.812;9.180;2023-03-01T09:16:11;15.80;1.00
3976;DHT22;2002;48.812;9.180;2023-03-01T09:18:37;15.80;1.00
3976;DHT22;2002;48.812;9.180;2023-03-01T09:21:14;15.70;1.00
3976;DHT22;2002;48.812;9.180;2023-03-01T09:23:43;15.70;1.00
3976;DHT22;2002;48.812;9.180;2023-03-01T09:26:11;15.70;1.00
3976;DHT22;2002;48.812;9.180;2023-03-01T09:28:38;15.70;1.00
3976;DHT22;2002;48.812;9.180;2023-03-01T09:31:04;15.70;1.00
3976;DHT22;2002;48.812;9.180;2023-03-01T09:33:31;15.70;1.00
3976;DHT22;2002;48.812;9.180;2023-03-01T09:36:02;15.60;1.00
3976;DHT22;2002;48.812;9.180;2023-03-01T09:38:28;15.70;1.00
3976;DHT22;2002;48.812;9.180;2023-03-01T09:40:54;15.70;1.00
3976;DHT22;2002;48.812;9.180;2023-03-01T09:46:10;15.70;1.00
3976;DHT22;2002;48.812;9.180;2023-03-01T09:48:55;15.70;1.00
3976;DHT22;2002;48.812;9.180;2023-03-01T09:51:30;15.70;1.00
3976;DHT22;2002;48.812;9.180;2023-03-01T09:53:56;15.70;1.00
3976;DHT22;2002;48.812;9.180;2023-03-01T09:56:34;15.70;1.00
3976;DHT22;2002;48.812;9.180;2023-03-01T09:59:18;15.90;1.00
3976;DHT22;2002;48.812;9.180;2023-03-01T10:09:37;16.70;1.00
3976;DHT22;2002;48.812;9.180;2023-03-01T10:12:12;16.60;1.00
3976;DHT22;2002;48.812;9.180;2023-03-01T10:14:44;16.50;1.00
3976;DHT22;2002;48.812;9.180;2023-03-01T10:17:25;16.40;1.00
3976;DHT22;2002;48.812;9.180;2023-03-01T10:19:54;16.30;1.00
3976;DHT22;2002;48.812;9.180;2023-03-01T10:22:30;16.20;1.00
3976;DHT22;2002;48.812;9.180;2023-03-01T10:24:59;16.20;1.00
3976;DHT22;2002;48.812;9.180;2023-03-01T10:27:38;16.10;1.00
3976;DHT22;2002;48.812;9.180;2023-03-01T10:30:29;16.10;1.00
3976;DHT22;2002;48.812;9.180;2023-03-01T10:32:57;16.00;1.00
3976;DHT22;2002;48.812;9.180;2023-03-01T10:35:26;16.00;1.00
3976;DHT22;2002;48.812;9.180;2023-03-01T10:38:08;15.90;1.00
3976;DHT22;2002;48.812;9.180;2023-03-01T10:40:36;15.90;1.00
3976;DHT22;2002;48.812;9.180;2023-03-01T10:43:04;15.90;1.00
3976;DHT22;2002;48.812;9.180;2023-03-01T10:48:22;15.80;1.00
3976;DHT22;2002;48.812;9.180;2023-03-01T10:51:12;15.80;1.00
3976;DHT22;2002;48.812;9.180;2023-03-01T10:53:47;15.80;1.00
3976;DHT22;2002;48.812;9.180;2023-03-01T10:56:14;15.80;1.00
3976;DHT22;2002;48.812;9.180;2023-03-01T10:59:04;15.70;1.00
3976;DHT22;2002;48.812;9.180;2023-03-01T11:01:32;15.80;1.00
3976;DHT22;2002;48.812;9.180;2023-03-01T11:06:34;15.70;1.00
3976;DHT22;2002;48.812;9.180;2023-03-01T11:09:21;15.70;1.00
3976;DHT22;2002;48.812;9.180;2023-03-01T11:11:55;15.70;1.00
3976;DHT22;2002;48.812;9.180;2023-03-01T11:14:31;15.70;1.00
3976;DHT22;2002;48.812;9.180;2023-03-01T11:19:32;15.70;1.00
3976;DHT22;2002;48.812;9.180;2023-03-01T11:22:12;15.70;1.00
3976;DHT22;2002;48.812;9.180;2023-03-01T11:24:48;15.70;1.00
3976;DHT22;2002;48.812;9.180;2023-03-01T11:27:47;15.70;1.00
3976;DHT22;2002;48.812;9.180;2023-03-01T11:30:26;15.70;1.00
3976;DHT22;2002;48.812;9.180;2023-03-01T11:35:36;15.60;1.00
3976;DHT22;2002;48.812;9.180;2023-03-01T11:40:49;15.70;1.00
3976;DHT22;2002;48.812;9.180;2023-03-01T11:48:34;16.70;1.00
3976;DHT22;2002;48.812;9.180;2023-03-01T11:51:13;16.70;1.00
3976;DHT22;2002;48.812;9.180;2023-03-01T11:56:28;16.60;1.00
3976;DHT22;2002;48.812;9.180;2023-03-01T12:10:30;16.20;1.00
3976;DHT22;2002;48.812;9.180;2023-03-01T12:13:22;16.20;1.00
3976;DHT22;2002;48.812;9.180;2023-03-01T12:16:13;16.10;1.00
3976;DHT22;2002;48.812;9.180;2023-03-01T12:27:17;16.00;1.00
3976;DHT22;2002;48.812;9.180;2023-03-01T12:32:57;15.90;1.00
3976;DHT22;2002;48.812;9.180;2023-03-01T12:35:54;15.90;1.00
3976;DHT22;2002;48.812;9.180;2023-03-01T12:38:45;15.80;1.00
3976;DHT22;2002;48.812;9.180;2023-03-01T12:47:00;15.80;1.00
3976;DHT22;2002;48.812;9.180;2023-03-01T12:49:40;15.70;1.00
3976;DHT22;2002;48.812;9.180;2023-03-01T12:54:40;15.70;1.00
3976;DHT22;2002;48.812;9.180;2023-03-01T13:00:02;15.70;1.00
3976;DHT22;2002;48.812;9.180;2023-03-01T13:05:10;15.70;1.00
3976;DHT22;2002;48.812;9.180;2023-03-01T13:10:49;15.70;1.00
3976;DHT22;2002;48.812;9.180;2023-03-01T13:13:27;15.70;1.00
3976;DHT22;2002;48.812;9.180;2023-03-01T13:15:53;15.60;1.00
3976;DHT22;2002;48.812;9.180;2023-03-01T13:20:50;15.60;1.00
3976;DHT22;2002;48.812;9.180;2023-03-01T13:28:35;16.30;1.00
3976;DHT22;2002;48.812;9.180;2023-03-01T13:31:04;16.70;1.00
3976;DHT22;2002;48.812;9.180;2023-03-01T13:35:57;16.90;1.00
3976;DHT22;2002;48.812;9.180;2023-03-01T13:39:02;16.80;1.00
3976;DHT22;2002;48.812;9.180;2023-03-01T13:46:47;16.50;1.00
3976;DHT22;2002;48.812;9.180;2023-03-01T13:49:16;16.40;1.00
3976;DHT22;2002;48.812;9.180;2023-03-01T13:51:46;16.40;1.00
3976;DHT22;2002;48.812;9.180;2023-03-01T13:54:14;16.30;1.00
3976;DHT22;2002;48.812;9.180;2023-03-01T13:56:41;16.20;1.00
3976;DHT22;2002;48.812;9.180;2023-03-01T13:59:15;16.20;1.00
3976;DHT22;2002;48.812;9.180;2023-03-01T14:01:41;16.10;1.00
3976;DHT22;2002;48.812;9.180;2023-03-01T14:04:33;16.00;1.00
3976;DHT22;2002;48.812;9.180;2023-03-01T14:07:11;16.00;1.00
3976;DHT22;2002;48.812;9.180;2023-03-01T14:09:41;16.00;1.00
3976;DHT22;2002;48.812;9.180;2023-03-01T14:20:43;15.80;1.00
3976;DHT22;2002;48.812;9.180;2023-03-01T14:23:18;15.80;1.00
3976;DHT22;2002;48.812;9.180;2023-03-01T14:25:48;15.80;1.00
3976;DHT22;2002;48.812;9.180;2023-03-01T14:28:26;15.80;1.00
3976;DHT22;2002;48.812;9.180;2023-03-01T14:30:55;15.80;1.00
3976;DHT22;2002;48.812;9.180;2023-03-01T14:33:29;15.70;1.00
3976;DHT22;2002;48.812;9.180;2023-03-01T14:38:31;15.70;1.00
3976;DHT22;2002;48.812;9.180;2023-03-01T14:40:59;15.70;1.00
3976;DHT22;2002;48.812;9.180;2023-03-01T14:43:27;15.80;1.00
3976;DHT22;2002;48.812;9.180;2023-03-01T14:45:54;15.70;1.00
3976;DHT22;2002;48.812;9.180;2023-03-01T14:48:20;15.70;1.00
3976;DHT22;2002;48.812;9.180;2023-03-01T14:50:46;15.70;1.00
3976;DHT22;2002;48.812;9.180;2023-03-01T14:53:19;15.70;1.00
3976;DHT22;2002;48.812;9.180;2023-03-01T14:55:59;15.60;1.00
3976;DHT22;2002;48.812;9.180;2023-03-01T14:58:26;15.70;1.00
3976;DHT22;2002;48.812;9.180;2023-03-01T15:00:58;15.60;1.00
3976;DHT22;2002;48.812;9.180;2023-03-01T15:03:30;15.60;1.00
3976;DHT22;2002;48.812;9.180;2023-03-01T15:05:57;15.70;1.00
3976;DHT22;2002;48.812;9.180;2023-03-01T15:08:24;16.00;1.00
3976;DHT22;2002;48.812;9.180;2023-03-01T15:11:22;16.40;1.00
3976;DHT22;2002;48.812;9.180;2023-03-01T15:13:51;16.80;1.00
3976;DHT22;2002;48.812;9.180;2023-03-01T15:16:19;16.90;1.00
3976;DHT22;2002;48.812;9.180;2023-03-01T15:18:55;16.80;1.00
3976;DHT22;2002;48.812;9.180;2023-03-01T15:21:24;16.80;1.00
3976;DHT22;2002;48.812;9.180;2023-03-01T15:23:54;16.70;1.00
3976;DHT22;2002;48.812;9.180;2023-03-01T15:26:26;16.60;1.00
3976;DHT22;2002;48.812;9.180;2023-03-01T15:28:55;16.50;1.00
3976;DHT22;2002;48.812;9.180;2023-03-01T15:31:32;16.50;1.00
3976;DHT22;2002;48.812;9.180;2023-03-01T15:34:24;16.40;1.00
3976;DHT22;2002;48.812;9.180;2023-03-01T15:36:51;16.30;1.00
3976;DHT22;2002;48.812;9.180;2023-03-01T15:39:53;16.20;1.00
3976;DHT22;2002;48.812;9.180;2023-03-01T15:47:57;16.00;1.00
3976;DHT22;2002;48.812;9.180;2023-03-01T15:50:29;16.00;1.00
3976;DHT22;2002;48.812;9.180;2023-03-01T15:52:59;16.00;1.00
3976;DHT22;2002;48.812;9.180;2023-03-01T15:55:27;15.90;1.00
3976;DHT22;2002;48.812;9.180;2023-03-01T15:58:12;15.90;1.00
3976;DHT22;2002;48.812;9.180;2023-03-01T16:00:38;15.80;1.00
3976;DHT22;2002;48.812;9.180;2023-03-01T16:03:05;15.80;1.00
3976;DHT22;2002;48.812;9.180;2023-03-01T16:05:32;15.80;1.00
3976;DHT22;2002;48.812;9.180;2023-03-01T16:08:00;15.80;1.00
3976;DHT22;2002;48.812;9.180;2023-03-01T16:10:26;15.80;1.00
3976;DHT22;2002;48.812;9.180;2023-03-01T16:12:52;15.70;1.00
3976;DHT22;2002;48.812;9.180;2023-03-01T16:15:32;15.70;1.00
3976;DHT22;2002;48.812;9.180;2023-03-01T16:17:59;15.70;1.00
3976;DHT22;2002;48.812;9.180;2023-03-01T16:20:26;15.70;1.00
3976;DHT22;2002;48.812;9.180;2023-03-01T16:22:52;15.70;1.00
3976;DHT22;2002;48.812;9.180;2023-03-01T16:25:18;15.70;1.00
3976;DHT22;2002;48.812;9.180;2023-03-01T16:27:46;15.70;1.00
3976;DHT22;2002;48.812;9.180;2023-03-01T16:30:13;15.70;1.00
3976;DHT22;2002;48.812;9.180;2023-03-01T16:32:41;15.70;1.00
3976;DHT22;2002;48.812;9.180;2023-03-01T16:35:08;15.70;1.00
3976;DHT22;2002;48.812;9.180;2023-03-01T16:37:35;15.70;1.00
3976;DHT22;2002;48.812;9.180;2023-03-01T16:40:02;15.70;1.00
3976;DHT22;2002;48.812;9.180;2023-03-01T16:42:34;15.70;1.00
3976;DHT22;2002;48.812;9.180;2023-03-01T16:45:00;15.70;1.00
3976;DHT22;2002;48.812;9.180;2023-03-01T16:47:27;15.80;1.00
3976;DHT22;2002;48.812;9.180;2023-03-01T16:49:53;15.90;1.00
3976;DHT22;2002;48.812;9.180;2023-03-01T16:52:19;16.20;1.00
3976;DHT22;2002;48.812;9.180;2023-03-01T16:54:45;16.50;1.00
3976;DHT22;2002;48.812;9.180;2023-03-01T16:57:10;16.60;1.00
3976;DHT22;2002;48.812;9.180;2023-03-01T16:59:36;16.70;1.00
3976;DHT22;2002;48.812;9.180;2023-03-01T17:02:03;16.70;1.00
3976;DHT22;2002;48.812;9.180;2023-03-01T17:04:29;16.70;1.00
3976;DHT22;2002;48.812;9.180;2023-03-01T17:06:54;16.60;1.00
3976;DHT22;2002;48.812;9.180;2023-03-01T17:09:20;16.60;1.00
3976;DHT22;2002;48.812;9.180;2023-03-01T17:11:47;16.50;1.00
3976;DHT22;2002;48.812;9.180;2023-03-01T17:14:14;16.50;1.00
3976;DHT22;2002;48.812;9.180;2023-03-01T17:16:41;16.40;1.00
3976;DHT22;2002;48.812;9.180;2023-03-01T17:19:07;16.30;1.00
3976;DHT22;2002;48.812;9.180;2023-03-01T17:21:33;16.30;1.00
3976;DHT22;2002;48.812;9.180;2023-03-01T17:23:59;16.20;1.00
3976;DHT22;2002;48.812;9.180;2023-03-01T17:26:26;16.20;1.00
3976;DHT22;2002;48.812;9.180;2023-03-01T17:28:54;16.10;1.00
3976;DHT22;2002;48.812;9.180;2023-03-01T17:31:20;16.00;1.00
3976;DHT22;2002;48.812;9.180;2023-03-01T17:33:46;16.00;1.00
3976;DHT22;2002;48.812;9.180;2023-03-01T17:36:12;16.00;1.00
3976;DHT22;2002;48.812;9.180;2023-03-01T17:38:37;16.00;1.00
3976;DHT22;2002;48.812;9.180;2023-03-01T17:41:04;15.90;1.00
3976;DHT22;2002;48.812;9.180;2023-03-01T17:43:30;15.90;1.00
3976;DHT22;2002;48.812;9.180;2023-03-01T17:45:56;15.80;1.00
3976;DHT22;2002;48.812;9.180;2023-03-01T17:48:22;15.80;1.00
3976;DHT22;2002;48.812;9.180;2023-03-01T17:50:48;15.80;1.00
3976;DHT22;2002;48.812;9.180;2023-03-01T17:53:14;15.80;1.00
3976;DHT22;2002;48.812;9.180;2023-03-01T17:55:41;15.80;1.00
3976;DHT22;2002;48.812;9.180;2023-03-01T17:58:08;15.70;1.00
3976;DHT22;2002;48.812;9.180;2023-03-01T18:00:35;15.70;1.00
3976;DHT22;2002;48.812;9.180;2023-03-01T18:03:01;15.70;1.00
3976;DHT22;2002;48.812;9.180;2023-03-01T18:05:26;15.60;1.00
3976;DHT22;2002;48.812;9.180;2023-03-01T18:07:52;15.60;1.00
3976;DHT22;2002;48.812;9.180;2023-03-01T18:10:19;15.60;1.00
3976;DHT22;2002;48.812;9.180;2023-03-01T18:12:45;15.60;1.00
3976;DHT22;2002;48.812;9.180;2023-03-01T18:15:11;15.70;1.00
3976;DHT22;2002;48.812;9.180;2023-03-01T18:17:37;15.70;1.00
3976;DHT22;2002;48.812;9.180;2023-03-01T18:20:04;15.90;1.00
3976;DHT22;2002;48.812;9.180;2023-03-01T18:22:31;16.20;1.00
3976;DHT22;2002;48.812;9.180;2023-03-01T18:24:56;16.50;1.00
3976;DHT22;2002;48.812;9.180;2023-03-01T18:27:23;16.70;1.00